Time;durP1;ratioP1;P1;durP2;ratioP2;P2;SDS_P1;SDS_P2;PMS_P1;PMS_P2;Temp;Humidity;BMP_temperature;BMP_pressure;BME280_temperature;BME280_humidity;BME280_pressure;Samples;Min_cycle;Max_cycle;Signal;HPM_P1;HPM_P2
2023/03/20 00:01:17;;;;;;;17.25;14.65;;;;;;;9.63;47.89;99172.78;5128631;28;20032;-69
2023/03/20 00:03:45;;;;;;;16.40;13.32;;;;;;;9.61;47.83;99180.81;5129719;28;20057;-68
2023/03/20 00:06:16;;;;;;;15.93;13.25;;;;;;;9.61;48.24;99179.97;5129518;28;20173;-71
2023/03/20 00:08:45;;;;;;;14.73;12.80;;;;;;;9.62;47.75;99189.59;5128723;28;20092;-72
2023/03/20 00:11:27;;;;;;;15.95;14.15;;;;;;;9.60;49.20;99178.25;5129893;28;20062;-71
2023/03/20 00:13:55;;;;;;;13.27;11.85;;;;;;;9.56;48.07;99192.59;5129888;28;20042;-71
2023/03/20 00:16:25;;;;;;;13.00;11.63;;;;;;;8.61;48.23;99031.00;5129399;28;20086;-71
2023/03/20 00:18:55;;;;;;;14.60;12.57;;;;;;;9.55;48.18;99178.50;5129073;28;20040;-70
2023/03/20 00:21:22;;;;;;;13.55;12.10;;;;;;;9.22;48.08;99128.22;5129592;28;20048;-71
2023/03/20 00:23:48;;;;;;;13.38;11.80;;;;;;;9.57;48.15;99173.97;5128970;28;20185;-72
2023/03/20 00:26:19;;;;;;;15.48;11.93;;;;;;;8.47;48.22;98985.09;5129422;28;20272;-73
2023/03/20 00:28:47;;;;;;;14.15;11.27;;;;;;;9.59;48.27;99169.47;5129389;28;20043;-72
2023/03/20 00:31:23;;;;;;;13.73;12.10;;;;;;;9.39;48.38;99139.69;5128710;28;20047;-72
2023/03/20 00:33:50;;;;;;;14.20;11.45;;;;;;;9.50;48.23;99163.81;5128230;28;20047;-71
2023/03/20 00:36:18;;;;;;;17.35;13.60;;;;;;;8.80;48.24;99046.72;5128053;28;20134;-71
2023/03/20 00:38:44;;;;;;;14.30;12.82;;;;;;;9.57;48.28;99170.47;5129079;28;20043;-72
2023/03/20 00:41:22;;;;;;;19.75;13.52;;;;;;;9.55;49.09;99172.34;5128731;28;20114;-70
2023/03/20 00:43:52;;;;;;;14.57;12.52;;;;;;;5.78;48.26;98534.88;5128898;28;20039;-70
2023/03/20 00:46:19;;;;;;;14.88;12.35;;;;;;;9.56;48.36;99159.03;5128785;28;20046;-72
2023/03/20 00:48:46;;;;;;;15.63;13.55;;;;;;;9.55;48.28;99159.97;5128676;28;20115;-72
2023/03/20 00:51:13;;;;;;;17.35;13.25;;;;;;;9.55;48.48;99157.34;5129086;28;20032;-72
2023/03/20 00:53:40;;;;;;;16.10;13.68;;;;;;;9.58;48.38;99161.59;5129019;28;20253;-70
2023/03/20 00:56:27;;;;;;;15.18;12.60;;;;;;;9.56;49.03;99155.53;5128701;28;20050;-71
2023/03/20 00:58:55;;;;;;;14.68;13.10;;;;;;;9.54;48.39;99158.28;5128256;28;20035;-72
2023/03/20 01:01:22;;;;;;;16.15;13.05;;;;;;;9.56;48.39;99148.47;5128625;28;20057;-71
2023/03/20 01:03:49;;;;;;;15.55;12.77;;;;;;;9.59;48.36;99158.88;5128594;28;20039;-71
2023/03/20 01:06:17;;;;;;;14.27;12.52;;;;;;;9.61;48.32;99153.50;5128211;28;20180;-71
2023/03/20 01:08:44;;;;;;;14.98;13.35;;;;;;;9.11;48.42;99069.75;5128229;28;20054;-70
2023/03/20 01:11:13;;;;;;;17.23;13.70;;;;;;;9.59;48.50;99152.72;5128717;28;20053;-71
2023/03/20 01:13:41;;;;;;;14.85;13.13;;;;;;;9.29;48.22;99115.53;5127807;28;20118;-71
2023/03/20 01:16:20;;;;;;;14.88;13.30;;;;;;;9.57;49.19;99159.91;5127975;28;20199;-71
2023/03/20 01:18:47;;;;;;;15.95;13.18;;;;;;;9.40;48.41;99131.72;5127984;28;20105;-71
2023/03/20 01:21:13;;;;;;;16.20;13.32;;;;;;;9.56;48.47;99164.34;5127634;28;20036;-71
2023/03/20 01:23:40;;;;;;;15.98;13.23;;;;;;;9.56;48.68;99174.06;5127613;28;20152;-71
2023/03/20 01:26:19;;;;;;;16.85;15.02;;;;;;;9.53;48.98;99169.78;5128430;28;20058;-71
2023/03/20 01:28:46;;;;;;;15.10;13.38;;;;;;;8.99;48.51;99079.19;5128188;28;20039;-71
2023/03/20 01:31:16;;;;;;;15.43;13.73;;;;;;;9.54;48.79;99162.72;5128146;27;20071;-71
2023/03/20 01:33:43;;;;;;;19.90;14.60;;;;;;;9.53;48.52;99161.84;5127712;28;20046;-70
2023/03/20 01:36:10;;;;;;;16.63;13.65;;;;;;;9.53;48.61;99159.22;5127140;28;20036;-71
2023/03/20 01:38:38;;;;;;;20.02;15.32;;;;;;;9.32;48.72;99129.44;5127797;27;20069;-71
2023/03/20 01:41:09;;;;;;;15.68;13.38;;;;;;;9.50;48.75;99166.47;5127493;28;20043;-71
2023/03/20 01:43:35;;;;;;;18.58;15.88;;;;;;;9.42;48.79;99158.94;5126666;28;20044;-70
2023/03/20 01:46:17;;;;;;;14.45;13.00;;;;;;;9.46;49.69;99172.84;5126683;28;20043;-70
2023/03/20 01:49:00;;;;;;;16.55;13.30;;;;;;;9.29;49.95;99147.25;5127353;28;20088;-71
2023/03/20 01:51:28;;;;;;;15.40;12.45;;;;;;;9.40;49.07;99171.38;5127414;28;20039;-71
2023/03/20 01:54:00;;;;;;;16.98;14.38;;;;;;;9.39;49.20;99174.09;5126497;28;20115;-71
2023/03/20 01:56:30;;;;;;;17.50;13.02;;;;;;;6.77;49.15;98778.31;5126550;28;20036;-71
2023/03/20 01:59:04;;;;;;;16.40;13.88;;;;;;;9.37;49.22;99184.75;5126370;28;20143;-71
2023/03/20 02:01:34;;;;;;;20.42;15.73;;;;;;;9.37;49.13;99170.66;5126442;28;20040;-70
2023/03/20 02:04:01;;;;;;;16.50;14.02;;;;;;;9.07;49.03;99118.44;5127357;28;20047;-70
2023/03/20 02:06:28;;;;;;;18.35;13.98;;;;;;;9.17;49.10;99138.16;5127544;28;20044;-70
2023/03/20 02:08:55;;;;;;;16.08;14.30;;;;;;;9.34;49.09;99149.66;5127611;28;20292;-71
2023/03/20 02:11:25;;;;;;;19.30;13.73;;;;;;;9.44;49.19;99161.50;5129291;28;20043;-70
2023/03/20 02:13:54;;;;;;;14.77;12.48;;;;;;;9.01;49.01;99097.59;5127309;28;20040;-70
2023/03/20 02:16:21;;;;;;;15.82;14.20;;;;;;;9.37;49.20;99146.84;5128169;28;20035;-71
2023/03/20 02:18:52;;;;;;;16.80;12.73;;;;;;;9.46;49.31;99170.19;5128464;28;20126;-70
2023/03/20 02:21:52;;;;;;;15.63;13.93;;;;;;;9.12;50.31;99119.03;5127545;28;20065;-70
2023/03/20 02:24:55;;;;;;;14.80;12.80;;;;;;;9.43;50.82;99171.22;5122292;28;20056;-70
2023/03/20 02:27:30;;;;;;;15.40;13.68;;;;;;;8.43;49.66;99005.53;5126410;28;20035;-70
2023/03/20 02:30:41;;;;;;;16.48;14.30;;;;;;;9.42;50.66;99168.66;5127328;28;20203;-70
2023/03/20 02:33:56;;;;;;;14.93;13.15;;;;;;;9.42;50.99;99177.44;5048297;28;20317;-71
2023/03/20 02:36:55;;;;;;;15.27;12.82;;;;;;;8.63;50.64;99054.69;5100236;28;20085;-71
2023/03/20 02:39:43;;;;;;;16.98;15.18;;;;;;;9.19;50.65;99149.50;5127086;28;20048;-71
2023/03/20 02:42:18;;;;;;;17.13;13.52;;;;;;;7.85;50.40;98924.06;5126792;28;20351;-71
2023/03/20 02:44:53;;;;;;;16.13;14.30;;;;;;;9.22;50.24;99154.66;5126750;28;20071;-72
2023/03/20 02:47:26;;;;;;;16.33;14.32;;;;;;;9.40;50.19;99189.00;5126529;28;20039;-71
2023/03/20 02:49:57;;;;;;;17.77;15.88;;;;;;;9.42;50.16;99190.69;5126004;28;20276;-71
2023/03/20 02:52:33;;;;;;;16.05;14.35;;;;;;;9.12;50.81;99163.13;5126557;28;20280;-71
2023/03/20 02:55:10;;;;;;;15.13;13.52;;;;;;;9.43;50.72;99189.75;5125436;28;20101;-71
2023/03/20 02:57:47;;;;;;;14.75;13.20;;;;;;;9.44;50.73;99191.44;5126743;28;20051;-71
2023/03/20 03:00:19;;;;;;;15.93;14.23;;;;;;;8.82;50.53;99083.66;5126633;28;20039;-72
2023/03/20 03:02:52;;;;;;;15.18;13.57;;;;;;;9.46;51.24;99194.00;5126168;28;20111;-70
2023/03/20 03:05:24;;;;;;;15.87;14.20;;;;;;;9.10;50.69;99128.00;5126459;28;20118;-71
2023/03/20 03:07:56;;;;;;;16.00;14.35;;;;;;;9.48;50.65;99186.84;5125437;28;20340;-71
2023/03/20 03:10:29;;;;;;;17.50;13.93;;;;;;;9.48;50.83;99193.00;5126288;28;20044;-71
2023/03/20 03:12:58;;;;;;;16.05;14.40;;;;;;;9.52;50.59;99197.19;5125122;28;20043;-70
2023/03/20 03:15:30;;;;;;;18.50;15.70;;;;;;;9.12;51.54;99126.97;5126308;28;20165;-70
2023/03/20 03:18:00;;;;;;;18.35;14.80;;;;;;;9.57;51.37;99199.59;5125264;28;20039;-71
2023/03/20 03:20:31;;;;;;;17.65;15.02;;;;;;;9.25;52.00;99140.44;5125670;28;20203;-71
2023/03/20 03:22:59;;;;;;;17.08;15.27;;;;;;;9.60;51.70;99199.41;5126546;28;20055;-71
2023/03/20 03:25:30;;;;;;;17.65;15.80;;;;;;;9.61;52.25;99194.03;5108430;28;20295;-71
2023/03/20 03:28:03;;;;;;;17.70;15.88;;;;;;;9.63;52.52;99197.47;5125973;28;20336;-72
2023/03/20 03:30:33;;;;;;;17.48;15.27;;;;;;;9.63;51.98;99197.47;5126169;28;20055;-72
2023/03/20 03:33:14;;;;;;;21.50;16.55;;;;;;;9.64;53.98;99198.31;5125834;28;20323;-72
2023/03/20 03:35:42;;;;;;;19.73;17.63;;;;;;;9.62;52.25;99197.53;5126450;28;20066;-72
2023/03/20 03:38:26;;;;;;;18.52;16.48;;;;;;;9.63;54.27;99199.25;5125764;28;20096;-71
2023/03/20 03:41:07;;;;;;;17.23;15.43;;;;;;;9.38;53.94;99154.72;5125744;28;20035;-70
2023/03/20 03:43:38;;;;;;;17.95;16.05;;;;;;;9.60;52.54;99194.97;5125752;28;20043;-70
2023/03/20 03:46:13;;;;;;;20.02;16.58;;;;;;;9.62;53.48;99197.53;5125223;28;20071;-71
2023/03/20 03:48:45;;;;;;;19.75;17.75;;;;;;;8.88;53.05;99076.25;5125936;28;20050;-71
2023/03/20 03:51:16;;;;;;;18.23;16.42;;;;;;;9.62;52.94;99202.84;5126179;28;20039;-72
2023/03/20 03:53:49;;;;;;;19.98;16.67;;;;;;;9.62;53.89;99198.41;5124807;28;20050;-71
2023/03/20 03:56:22;;;;;;;19.02;17.02;;;;;;;9.10;54.13;99112.97;5125889;28;20063;-70
2023/03/20 03:58:53;;;;;;;18.75;16.75;;;;;;;9.61;53.60;99198.47;5125788;28;20314;-71
2023/03/20 04:01:23;;;;;;;18.05;16.25;;;;;;;9.63;53.36;99188.66;5129649;28;20047;-71
2023/03/20 04:03:52;;;;;;;24.55;17.83;;;;;;;9.61;53.68;99191.41;5129692;28;20039;-72
2023/03/20 04:06:20;;;;;;;17.45;15.63;;;;;;;9.42;53.44;99156.28;5129678;28;20062;-71
2023/03/20 04:08:47;;;;;;;19.13;17.15;;;;;;;9.28;53.69;99133.19;5128406;28;20115;-71
2023/03/20 04:11:16;;;;;;;18.92;16.80;;;;;;;8.94;53.67;99126.16;5129556;27;20192;-71
2023/03/20 04:13:46;;;;;;;19.58;17.58;;;;;;;9.55;54.33;99190.88;5128376;28;20032;-71
2023/03/20 04:16:16;;;;;;;18.77;16.85;;;;;;;9.61;53.93;99199.34;5128544;28;20071;-71
2023/03/20 04:18:44;;;;;;;21.17;18.75;;;;;;;9.60;54.07;99192.34;5129629;28;20290;-71
2023/03/20 04:21:11;;;;;;;20.45;18.48;;;;;;;9.62;54.11;99190.47;5128205;28;20035;-71
2023/03/20 04:23:38;;;;;;;19.27;17.33;;;;;;;9.62;54.19;99193.09;5129519;28;20043;-71
2023/03/20 04:26:06;;;;;;;20.48;17.42;;;;;;;8.86;54.11;99077.28;5128393;28;20054;-71
2023/03/20 04:28:33;;;;;;;20.70;18.50;;;;;;;9.11;54.32;99111.19;5129084;27;20044;-70
2023/03/20 04:31:02;;;;;;;20.45;18.35;;;;;;;9.62;54.26;99185.16;5128509;28;20046;-71
2023/03/20 04:33:29;;;;;;;20.98;18.77;;;;;;;9.61;54.48;99187.91;5127672;28;20093;-71
2023/03/20 04:35:56;;;;;;;20.05;17.95;;;;;;;9.60;54.50;99189.69;5127871;28;20062;-71
2023/03/20 04:38:24;;;;;;;20.05;18.05;;;;;;;9.11;54.71;99108.53;5127822;28;20046;-71
2023/03/20 04:40:51;;;;;;;20.27;18.23;;;;;;;9.59;54.54;99200.34;5127815;28;20036;-71
2023/03/20 04:43:20;;;;;;;20.15;17.95;;;;;;;9.59;54.45;99190.63;5128828;28;20036;-71
2023/03/20 04:45:47;;;;;;;20.73;18.02;;;;;;;8.81;54.92;99055.50;5128899;28;20093;-71
2023/03/20 04:48:15;;;;;;;20.08;18.05;;;;;;;9.58;55.15;99194.22;5128782;28;20031;-71
2023/03/20 04:50:45;;;;;;;19.42;17.50;;;;;;;9.59;55.15;99189.78;5128630;28;20040;-71
2023/03/20 04:53:12;;;;;;;18.80;16.90;;;;;;;9.58;55.03;99203.94;5128924;28;20112;-71
2023/03/20 04:55:39;;;;;;;20.20;18.10;;;;;;;7.94;54.98;98920.97;5128485;28;20092;-71
2023/03/20 04:58:05;;;;;;;19.55;17.45;;;;;;;9.59;55.12;99203.00;5128175;28;20252;-71
2023/03/20 05:00:32;;;;;;;19.50;17.60;;;;;;;7.88;55.23;98926.56;5128537;28;20052;-71
2023/03/20 05:03:00;;;;;;;18.77;16.67;;;;;;;8.40;55.16;99034.75;5128322;28;20040;-71
2023/03/20 05:05:28;;;;;;;20.00;17.35;;;;;;;9.55;55.35;99217.34;5128064;28;20106;-71
2023/03/20 05:07:55;;;;;;;18.95;16.70;;;;;;;8.86;55.27;99106.34;5128579;28;20200;-71
2023/03/20 05:10:22;;;;;;;21.30;18.23;;;;;;;8.42;55.09;99043.44;5127950;28;20203;-70
2023/03/20 05:12:49;;;;;;;19.40;17.40;;;;;;;9.56;55.37;99227.84;5127023;28;20035;-71
2023/03/20 05:15:16;;;;;;;18.50;16.70;;;;;;;9.22;55.44;99180.25;5127038;28;20312;-71
2023/03/20 05:17:42;;;;;;;18.95;16.95;;;;;;;9.55;55.48;99233.22;5128101;28;20042;-71
2023/03/20 05:20:10;;;;;;;19.58;17.58;;;;;;;9.55;55.53;99241.13;5126921;28;20035;-71
2023/03/20 05:22:38;;;;;;;18.48;16.55;;;;;;;9.55;55.55;99238.50;5127725;28;20051;-71
2023/03/20 05:25:05;;;;;;;18.42;15.05;;;;;;;9.55;55.42;99247.28;5128170;28;20110;-71
2023/03/20 05:27:32;;;;;;;19.77;16.10;;;;;;;9.23;55.32;99193.41;5127629;28;20081;-72
2023/03/20 05:29:59;;;;;;;18.95;16.15;;;;;;;9.23;55.33;99229.56;5126763;28;20039;-72
2023/03/20 05:32:26;;;;;;;18.15;16.33;;;;;;;9.04;55.62;99168.81;5127407;28;20119;-72
2023/03/20 05:34:53;;;;;;;18.15;16.35;;;;;;;9.35;55.57;99217.50;5127711;28;20050;-72
2023/03/20 05:37:20;;;;;;;19.02;16.95;;;;;;;9.61;55.55;99267.28;5126528;28;20035;-72
2023/03/20 05:39:48;;;;;;;19.23;16.80;;;;;;;9.62;55.77;99269.00;5126610;28;20040;-72
2023/03/20 05:42:14;;;;;;;18.85;15.30;;;;;;;8.31;55.43;99051.06;5126705;28;20222;-72
2023/03/20 05:44:41;;;;;;;16.77;15.07;;;;;;;9.63;55.55;99270.69;5127645;28;20047;-71
2023/03/20 05:47:08;;;;;;;18.95;17.05;;;;;;;9.19;55.54;99201.53;5127645;27;20107;-71
2023/03/20 05:49:35;;;;;;;17.25;15.43;;;;;;;9.43;55.61;99245.28;5127159;28;20085;-71
2023/03/20 05:52:02;;;;;;;18.02;15.57;;;;;;;8.74;55.41;99130.75;5127708;28;20191;-71
2023/03/20 05:54:31;;;;;;;18.23;16.42;;;;;;;9.73;55.34;99289.59;5126982;28;20097;-71
2023/03/20 05:56:59;;;;;;;16.58;14.95;;;;;;;9.52;55.37;99257.19;5127411;28;20042;-71
2023/03/20 05:59:26;;;;;;;19.98;17.95;;;;;;;9.43;55.52;99239.13;5126999;28;20039;-71
2023/03/20 06:01:53;;;;;;;22.17;16.60;;;;;;;9.47;55.41;99238.03;5127365;28;20085;-71
2023/03/20 06:04:22;;;;;;;17.63;15.82;;;;;;;9.84;55.39;99296.03;5126499;28;20035;-71
2023/03/20 06:06:48;;;;;;;18.02;15.18;;;;;;;9.87;55.37;99297.66;5127045;28;20123;-72
2023/03/20 06:09:15;;;;;;;17.73;15.93;;;;;;;9.56;55.41;99240.22;5127286;28;20232;-71
2023/03/20 06:11:42;;;;;;;16.13;14.52;;;;;;;9.96;55.04;99297.16;5125717;28;20307;-71
2023/03/20 06:14:10;;;;;;;19.02;15.07;;;;;;;9.30;55.03;99178.91;5126036;28;20243;-72
2023/03/20 06:16:37;;;;;;;16.42;14.63;;;;;;;10.19;54.85;99306.53;5126496;28;20039;-72
2023/03/20 06:19:05;;;;;;;17.08;15.20;;;;;;;10.31;54.49;99305.84;5126726;28;20043;-71
2023/03/20 06:21:32;;;;;;;19.60;16.48;;;;;;;10.11;54.36;99250.47;5126721;28;20039;-72
2023/03/20 06:24:00;;;;;;;18.23;15.73;;;;;;;10.56;54.32;99300.06;5126725;28;20039;-71
2023/03/20 06:26:27;;;;;;;17.63;15.77;;;;;;;10.34;53.93;99244.75;5125643;28;20042;-71
2023/03/20 06:28:54;;;;;;;17.05;15.35;;;;;;;9.87;53.98;99160.88;5126698;28;20047;-71
2023/03/20 06:31:22;;;;;;;19.05;17.10;;;;;;;10.86;54.29;99300.16;5126402;28;20035;-71
2023/03/20 06:33:49;;;;;;;20.45;16.73;;;;;;;10.99;54.50;99292.34;5125457;28;20041;-72
2023/03/20 06:36:16;;;;;;;16.42;14.77;;;;;;;11.17;53.89;99302.75;5126743;28;20061;-72
2023/03/20 06:38:43;;;;;;;16.38;14.70;;;;;;;11.38;53.68;99305.06;5126192;28;20043;-72
2023/03/20 06:41:10;;;;;;;16.65;14.18;;;;;;;11.01;53.77;99210.91;5125369;28;20111;-72
2023/03/20 06:43:38;;;;;;;18.92;15.10;;;;;;;11.35;53.42;99237.13;5125311;28;20304;-72
2023/03/20 06:46:06;;;;;;;14.93;13.43;;;;;;;11.40;53.19;99207.66;5126279;28;20325;-72
2023/03/20 06:48:35;;;;;;;17.23;14.85;;;;;;;12.19;53.08;99298.38;5125964;28;20077;-72
2023/03/20 06:51:02;;;;;;;17.92;14.63;;;;;;;12.36;52.73;99306.16;5125562;28;20051;-72
2023/03/20 06:53:29;;;;;;;17.95;15.63;;;;;;;12.55;51.96;99297.84;5126288;28;20043;-71
2023/03/20 06:55:55;;;;;;;16.02;13.98;;;;;;;12.72;51.94;99299.44;5126566;28;20040;-72
2023/03/20 06:58:23;;;;;;;23.40;14.48;;;;;;;11.18;52.31;99017.13;5125033;28;20318;-72
2023/03/20 07:00:50;;;;;;;16.17;14.68;;;;;;;12.88;51.77;99275.34;5126077;28;20047;-72
2023/03/20 07:03:17;;;;;;;16.95;15.20;;;;;;;13.01;51.45;99271.78;5125005;28;20092;-71
2023/03/20 07:05:46;;;;;;;15.82;14.20;;;;;;;13.36;51.38;99293.38;5125764;28;20062;-72
2023/03/20 07:08:14;;;;;;;14.75;13.25;;;;;;;13.39;51.18;99268.34;5125861;28;20102;-72
2023/03/20 07:10:40;;;;;;;15.70;13.48;;;;;;;13.60;50.57;99269.56;5126372;28;20027;-72
2023/03/20 07:13:08;;;;;;;17.85;14.80;;;;;;;13.96;50.64;99302.59;5124697;28;20047;-72
2023/03/20 07:15:35;;;;;;;14.98;13.38;;;;;;;13.70;49.89;99233.34;5125829;28;20050;-72
2023/03/20 07:18:02;;;;;;;14.52;12.63;;;;;;;14.28;50.18;99303.84;5126070;28;20052;-71
2023/03/20 07:20:29;;;;;;;12.88;11.57;;;;;;;14.25;49.49;99273.91;5124566;28;20046;-72
2023/03/20 07:22:57;;;;;;;14.02;12.35;;;;;;;14.58;49.69;99305.31;5125707;28;20084;-71
2023/03/20 07:25:24;;;;;;;14.50;13.02;;;;;;;14.78;49.39;99302.09;5125732;28;20054;-71
2023/03/20 07:27:52;;;;;;;11.95;10.25;;;;;;;14.95;49.15;99300.84;5125073;28;20047;-72
2023/03/20 07:30:19;;;;;;;11.55;10.25;;;;;;;15.03;48.70;99291.31;5124949;28;20383;-73
2023/03/20 07:32:47;;;;;;;11.68;10.48;;;;;;;15.17;48.67;99305.44;5125176;28;20052;-74
2023/03/20 07:35:14;;;;;;;12.55;10.95;;;;;;;15.32;48.47;99302.47;5127297;28;20042;-73
2023/03/20 07:37:41;;;;;;;13.05;10.50;;;;;;;14.89;48.15;99230.09;5130098;28;20039;-72
2023/03/20 07:40:11;;;;;;;11.30;10.13;;;;;;;15.60;47.84;99303.88;5129847;28;20046;-72
2023/03/20 07:42:38;;;;;;;10.88;9.75;;;;;;;15.53;47.65;99273.28;5130308;28;20055;-72
2023/03/20 07:45:06;;;;;;;12.45;10.23;;;;;;;15.78;47.49;99312.34;5129951;28;20043;-72
2023/03/20 07:47:33;;;;;;;11.05;9.95;;;;;;;14.26;47.27;99065.88;5129623;28;20045;-73
2023/03/20 07:50:00;;;;;;;11.80;9.93;;;;;;;15.42;47.56;99230.50;5111717;28;20047;-73
2023/03/20 07:52:27;;;;;;;12.40;9.93;;;;;;;16.00;47.58;99304.34;5129823;28;20059;-73
2023/03/20 07:54:54;;;;;;;10.07;9.05;;;;;;;16.18;47.18;99312.75;5129502;28;20043;-73
2023/03/20 07:57:23;;;;;;;12.10;9.25;;;;;;;14.62;46.67;99014.31;5128916;28;20039;-73
2023/03/20 07:59:49;;;;;;;10.05;9.05;;;;;;;16.60;46.52;99313.81;5128445;28;20039;-73
2023/03/20 08:02:18;;;;;;;12.82;9.45;;;;;;;16.15;46.29;99206.06;5128574;28;20318;-73
2023/03/20 08:04:45;;;;;;;9.18;8.18;;;;;;;17.06;45.75;99307.44;5129417;28;20036;-73
2023/03/20 08:07:12;;;;;;;9.50;8.50;;;;;;;17.19;45.54;99300.06;5129193;28;20173;-72
2023/03/20 08:09:39;;;;;;;9.48;8.30;;;;;;;17.34;45.41;99303.34;5129281;28;20199;-72
2023/03/20 08:12:07;;;;;;;10.38;8.68;;;;;;;17.36;45.07;99321.97;5129270;28;20043;-73
2023/03/20 08:14:37;;;;;;;9.55;8.23;;;;;;;17.41;44.69;99306.34;5128314;28;20035;-73
2023/03/20 08:17:04;;;;;;;9.07;7.82;;;;;;;16.82;45.03;99226.47;5128020;28;20039;-73
2023/03/20 08:19:31;;;;;;;8.68;7.85;;;;;;;17.20;45.29;99300.94;5128734;28;20106;-73
2023/03/20 08:21:58;;;;;;;8.80;7.72;;;;;;;16.78;45.39;99246.44;5128930;28;20044;-73
2023/03/20 08:24:25;;;;;;;9.43;8.15;;;;;;;17.10;45.34;99290.13;5128179;28;20112;-73
2023/03/20 08:26:52;;;;;;;12.85;8.30;;;;;;;17.20;45.16;99299.13;5129142;28;20040;-73
2023/03/20 08:29:19;;;;;;;9.60;8.40;;;;;;;17.31;45.11;99295.56;5129090;28;20050;-73
2023/03/20 08:31:48;;;;;;;10.20;7.50;;;;;;;17.44;44.97;99298.06;5127710;28;20123;-73
2023/03/20 08:34:15;;;;;;;8.32;6.90;;;;;;;17.51;44.86;99291.19;5127989;28;20085;-73
2023/03/20 08:36:42;;;;;;;8.55;7.30;;;;;;;17.70;44.23;99298.56;5111310;28;20060;-73
2023/03/20 08:39:10;;;;;;;7.43;6.72;;;;;;;17.18;43.84;99199.28;5128056;28;20255;-72
2023/03/20 08:41:37;;;;;;;8.10;6.63;;;;;;;17.81;43.81;99293.97;5127886;28;20276;-72
2023/03/20 08:44:05;;;;;;;7.95;6.60;;;;;;;17.90;43.91;99290.50;5128642;28;20039;-73
2023/03/20 08:46:32;;;;;;;7.93;6.55;;;;;;;17.25;43.81;99192.47;5127231;28;20119;-73
2023/03/20 08:49:00;;;;;;;9.15;7.32;;;;;;;18.03;43.73;99289.44;5128497;28;20096;-73
2023/03/20 08:51:27;;;;;;;11.02;8.52;;;;;;;18.14;43.79;99292.03;5128114;28;20039;-73
2023/03/20 08:53:54;;;;;;;9.25;7.15;;;;;;;18.22;43.55;99289.53;5128051;28;20039;-72
2023/03/20 08:56:21;;;;;;;9.70;6.85;;;;;;;18.04;43.71;99254.44;5128600;28;20036;-73
2023/03/20 08:58:48;;;;;;;7.15;5.82;;;;;;;18.27;43.45;99292.66;5127589;28;20086;-73
2023/03/20 09:01:15;;;;;;;6.10;5.50;;;;;;;17.92;43.18;99250.16;5127390;28;20299;-72
2023/03/20 09:03:42;;;;;;;7.10;5.70;;;;;;;17.41;43.36;99170.56;5127414;28;20044;-73
2023/03/20 09:06:11;;;;;;;7.53;4.93;;;;;;;18.43;42.76;99284.94;5128707;28;20042;-73
2023/03/20 09:08:38;;;;;;;6.72;4.93;;;;;;;17.93;42.91;99191.03;5127710;28;20058;-73
2023/03/20 09:11:07;;;;;;;6.82;5.22;;;;;;;18.53;42.83;99304.66;5127888;28;20073;-73
2023/03/20 09:13:34;;;;;;;7.05;4.78;;;;;;;18.54;42.74;99294.78;5128052;28;20043;-73
2023/03/20 09:16:01;;;;;;;5.40;4.40;;;;;;;18.59;42.86;99300.56;5128275;28;20047;-73
2023/03/20 09:18:27;;;;;;;7.32;5.22;;;;;;;17.66;42.58;99137.16;5126005;28;20053;-72
2023/03/20 09:20:55;;;;;;;6.00;4.40;;;;;;;18.56;42.25;99266.81;5127052;28;20202;-73
2023/03/20 09:23:24;;;;;;;4.95;4.43;;;;;;;18.74;42.33;99284.94;5127475;28;20035;-72
2023/03/20 09:25:51;;;;;;;6.60;4.88;;;;;;;18.14;42.32;99182.06;5127693;28;20299;-73
2023/03/20 09:28:18;;;;;;;5.57;4.10;;;;;;;18.69;42.11;99258.50;5127717;28;20115;-73
2023/03/20 09:30:46;;;;;;;8.38;5.38;;;;;;;18.94;41.76;99289.34;5127704;28;20084;-73
2023/03/20 09:33:14;;;;;;;6.35;4.68;;;;;;;18.48;41.62;99191.47;5127093;28;20071;-73
2023/03/20 09:35:41;;;;;;;6.72;4.68;;;;;;;19.07;41.29;99284.56;5126586;28;20051;-73
2023/03/20 09:38:09;;;;;;;6.80;4.50;;;;;;;18.74;41.10;99228.56;5126834;28;20040;-73
2023/03/20 09:40:51;;;;;;;5.63;3.72;;;;;;;19.08;39.79;99278.19;5127278;28;20043;-73
2023/03/20 09:43:25;;;;;;;6.53;4.15;;;;;;;19.01;40.64;99246.66;5127678;28;20039;-73
2023/03/20 09:46:04;;;;;;;5.03;3.78;;;;;;;19.32;39.58;99276.94;5126344;28;20170;-73
2023/03/20 09:48:37;;;;;;;5.30;3.95;;;;;;;19.37;40.08;99282.72;5127235;28;20111;-73
2023/03/20 09:51:16;;;;;;;6.78;4.88;;;;;;;19.54;40.05;99280.19;5109848;28;20054;-73
2023/03/20 09:53:48;;;;;;;7.63;4.63;;;;;;;19.57;39.94;99283.59;5126273;28;20070;-73
2023/03/20 09:56:22;;;;;;;11.07;5.13;;;;;;;19.53;39.63;99280.34;5126798;28;20059;-73
2023/03/20 09:58:54;;;;;;;5.68;3.95;;;;;;;19.58;39.85;99280.75;5126487;28;20039;-74
2023/03/20 10:01:24;;;;;;;6.82;4.05;;;;;;;19.65;40.03;99267.59;5126522;28;20039;-73
2023/03/20 10:03:55;;;;;;;5.93;4.82;;;;;;;19.77;39.65;99274.50;5126940;28;20200;-73
2023/03/20 10:06:22;;;;;;;5.18;4.35;;;;;;;19.45;39.89;99232.69;5127142;28;20043;-73
2023/03/20 10:08:50;;;;;;;7.47;4.55;;;;;;;19.67;39.88;99277.22;5109335;28;20040;-73
2023/03/20 10:11:49;;;;;;;6.68;3.53;;;;;;;19.69;38.45;99266.31;5126010;28;20326;-73
2023/03/20 10:14:26;;;;;;;5.45;3.83;;;;;;;19.57;38.09;99224.47;5125857;28;20043;-72
2023/03/20 10:17:04;;;;;;;4.93;3.40;;;;;;;19.70;37.46;99222.31;5126914;28;20228;-73
2023/03/20 10:19:35;;;;;;;6.78;3.45;;;;;;;19.68;38.95;99217.06;5126448;28;20066;-73
2023/03/20 10:22:08;;;;;;;4.22;2.95;;;;;;;19.35;37.83;99166.47;5126663;28;20039;-73
2023/03/20 10:24:40;;;;;;;5.88;4.22;;;;;;;19.95;38.29;99259.34;5126643;28;20039;-73
2023/03/20 10:27:22;;;;;;;5.47;3.45;;;;;;;19.72;37.59;99206.88;5126719;28;20046;-72
2023/03/20 10:29:57;;;;;;;5.55;3.58;;;;;;;19.40;37.78;99140.03;5126440;28;20077;-72
2023/03/20 10:32:33;;;;;;;4.80;3.53;;;;;;;20.26;38.35;99243.81;5126268;28;20325;-72
2023/03/20 10:35:17;;;;;;;4.82;3.38;;;;;;;20.40;36.33;99240.63;5126161;28;20039;-72
2023/03/20 10:38:02;;;;;;;6.22;3.38;;;;;;;20.11;36.72;99164.56;5125771;28;20055;-73
2023/03/20 10:40:30;;;;;;;4.50;3.20;;;;;;;19.84;37.62;99106.22;5125279;28;20042;-72
2023/03/20 10:43:02;;;;;;;5.60;3.55;;;;;;;20.03;37.00;99177.91;5126384;28;20035;-72
2023/03/20 10:45:38;;;;;;;7.05;3.80;;;;;;;20.34;37.03;99243.06;5125549;28;20052;-72
2023/03/20 10:48:13;;;;;;;6.25;4.40;;;;;;;20.34;37.40;99232.31;5126279;28;20044;-72
2023/03/20 10:50:43;;;;;;;6.13;4.18;;;;;;;20.07;37.70;99185.53;5126076;28;20035;-72
2023/03/20 10:53:24;;;;;;;7.43;4.38;;;;;;;20.34;36.89;99233.16;5108276;28;20043;-72
2023/03/20 10:55:52;;;;;;;9.48;6.93;;;;;;;19.58;38.04;99097.97;5125813;28;20102;-72
2023/03/20 10:58:24;;;;;;;9.73;4.95;;;;;;;20.25;37.41;99225.13;5125363;28;20043;-72
2023/03/20 11:00:56;;;;;;;8.57;4.60;;;;;;;20.15;38.14;99225.13;5125864;28;20192;-72
2023/03/20 11:03:26;;;;;;;5.68;4.13;;;;;;;20.07;38.16;99227.72;5125727;28;20049;-71
2023/03/20 11:05:59;;;;;;;8.30;4.25;;;;;;;19.57;37.89;99141.13;5125883;28;20119;-72
2023/03/20 11:08:34;;;;;;;5.75;4.45;;;;;;;20.13;37.42;99219.06;5125108;28;20043;-72
2023/03/20 11:11:04;;;;;;;5.47;4.32;;;;;;;20.13;38.07;99225.28;5124601;28;20065;-73
2023/03/20 11:13:35;;;;;;;4.93;3.70;;;;;;;20.03;37.45;99207.50;5124152;28;20048;-72
2023/03/20 11:16:20;;;;;;;4.90;3.50;;;;;;;19.90;36.85;99210.53;5125728;28;20219;-73
2023/03/20 11:18:49;;;;;;;5.40;4.35;;;;;;;19.61;38.23;99172.09;5125472;28;20057;-72
2023/03/20 11:21:20;;;;;;;6.43;4.38;;;;;;;19.19;37.96;99107.97;5124127;28;20040;-72
2023/03/20 11:23:47;;;;;;;6.07;3.85;;;;;;;19.84;37.85;99216.50;5125131;28;20063;-73
2023/03/20 11:26:16;;;;;;;6.55;4.03;;;;;;;19.86;37.89;99212.66;5124601;28;20280;-71
2023/03/20 11:28:51;;;;;;;3.92;3.33;;;;;;;19.78;37.29;99196.38;5125288;28;20043;-72
2023/03/20 11:31:26;;;;;;;5.93;4.65;;;;;;;19.39;37.90;99149.09;5107132;28;20031;-73
2023/03/20 11:34:01;;;;;;;6.13;3.60;;;;;;;19.72;38.43;99191.59;5124373;28;20048;-72
2023/03/20 11:36:30;;;;;;;5.28;4.03;;;;;;;19.69;38.18;99186.50;5125688;28;20063;-72
2023/03/20 11:39:05;;;;;;;6.60;4.32;;;;;;;18.92;37.94;99081.88;5125270;28;20035;-73
2023/03/20 11:41:32;;;;;;;4.93;4.07;;;;;;;19.42;38.12;99138.06;5124356;28;20047;-73